sensor_id;sensor_type;location;lat;lon;timestamp;temperature;humidity
20459;DHT22;10388;52.314;7.938;2023-05-19T03:32:00;3.50;99.90
20459;DHT22;10388;52.314;7.938;2023-05-19T03:34:31;3.60;99.90
20459;DHT22;10388;52.314;7.938;2023-05-19T03:37:03;3.60;99.90
20459;DHT22;10388;52.314;7.938;2023-05-19T03:39:33;3.50;99.90
20459;DHT22;10388;52.314;7.938;2023-05-19T03:42:04;3.50;99.90
20459;DHT22;10388;52.314;7.938;2023-05-19T03:44:35;3.50;99.90
20459;DHT22;10388;52.314;7.938;2023-05-19T03:47:05;3.50;99.90
20459;DHT22;10388;52.314;7.938;2023-05-19T03:49:36;3.50;99.90
20459;DHT22;10388;52.314;7.938;2023-05-19T03:52:06;3.50;99.90
20459;DHT22;10388;52.314;7.938;2023-05-19T03:54:37;3.50;99.90
20459;DHT22;10388;52.314;7.938;2023-05-19T03:57:09;3.50;99.90
20459;DHT22;10388;52.314;7.938;2023-05-19T03:59:40;3.50;99.90
20459;DHT22;10388;52.314;7.938;2023-05-19T04:02:11;3.60;99.90
20459;DHT22;10388;52.314;7.938;2023-05-19T04:04:41;3.60;99.90
20459;DHT22;10388;52.314;7.938;2023-05-19T04:07:12;3.70;99.90
20459;DHT22;10388;52.314;7.938;2023-05-19T04:09:42;3.80;99.90
20459;DHT22;10388;52.314;7.938;2023-05-19T04:12:13;3.90;99.90
20459;DHT22;10388;52.314;7.938;2023-05-19T04:14:43;3.90;99.90
20459;DHT22;10388;52.314;7.938;2023-05-19T04:17:14;3.90;99.90
20459;DHT22;10388;52.314;7.938;2023-05-19T04:19:45;4.00;99.90
20459;DHT22;10388;52.314;7.938;2023-05-19T04:22:15;4.10;99.90
20459;DHT22;10388;52.314;7.938;2023-05-19T04:24:46;4.10;99.90
20459;DHT22;10388;52.314;7.938;2023-05-19T04:27:16;4.10;99.90
20459;DHT22;10388;52.314;7.938;2023-05-19T04:29:47;4.20;99.90
20459;DHT22;10388;52.314;7.938;2023-05-19T04:32:19;4.20;99.90
20459;DHT22;10388;52.314;7.938;2023-05-19T04:34:49;4.30;99.90
20459;DHT22;10388;52.314;7.938;2023-05-19T04:37:20;4.30;99.90
20459;DHT22;10388;52.314;7.938;2023-05-19T04:39:51;4.40;99.90
20459;DHT22;10388;52.314;7.938;2023-05-19T04:42:21;4.50;99.90
20459;DHT22;10388;52.314;7.938;2023-05-19T04:44:55;4.50;99.90
20459;DHT22;10388;52.314;7.938;2023-05-19T04:47:25;4.60;99.90
20459;DHT22;10388;52.314;7.938;2023-05-19T04:49:57;4.70;99.90
20459;DHT22;10388;52.314;7.938;2023-05-19T04:52:29;4.80;99.90
20459;DHT22;10388;52.314;7.938;2023-05-19T04:55:00;4.90;99.90
20459;DHT22;10388;52.314;7.938;2023-05-19T04:57:31;5.00;99.90
20459;DHT22;10388;52.314;7.938;2023-05-19T05:00:02;5.10;99.90
20459;DHT22;10388;52.314;7.938;2023-05-19T05:02:34;5.20;99.90
20459;DHT22;10388;52.314;7.938;2023-05-19T05:05:05;5.30;99.90
20459;DHT22;10388;52.314;7.938;2023-05-19T05:07:36;5.40;99.90
20459;DHT22;10388;52.314;7.938;2023-05-19T05:10:07;5.60;99.90
20459;DHT22;10388;52.314;7.938;2023-05-19T05:12:38;5.70;99.90
20459;DHT22;10388;52.314;7.938;2023-05-19T05:15:09;5.80;99.90
20459;DHT22;10388;52.314;7.938;2023-05-19T05:17:40;5.90;99.90
20459;DHT22;10388;52.314;7.938;2023-05-19T05:20:11;6.10;99.90
20459;DHT22;10388;52.314;7.938;2023-05-19T05:22:42;6.20;99.90
20459;DHT22;10388;52.314;7.938;2023-05-19T05:25:13;6.30;99.90
20459;DHT22;10388;52.314;7.938;2023-05-19T05:27:45;6.50;99.90
20459;DHT22;10388;52.314;7.938;2023-05-19T05:30:16;6.60;99.90
20459;DHT22;10388;52.314;7.938;2023-05-19T05:32:46;6.80;99.90
20459;DHT22;10388;52.314;7.938;2023-05-19T05:35:17;6.90;99.90
20459;DHT22;10388;52.314;7.938;2023-05-19T05:37:47;7.10;99.90
20459;DHT22;10388;52.314;7.938;2023-05-19T05:40:18;7.20;99.90
20459;DHT22;10388;52.314;7.938;2023-05-19T05:42:49;7.40;99.90
20459;DHT22;10388;52.314;7.938;2023-05-19T05:45:21;7.50;99.90
20459;DHT22;10388;52.314;7.938;2023-05-19T05:47:52;7.70;99.90
20459;DHT22;10388;52.314;7.938;2023-05-19T05:50:23;7.90;99.90
20459;DHT22;10388;52.314;7.938;2023-05-19T05:52:54;8.00;99.90
20459;DHT22;10388;52.314;7.938;2023-05-19T05:55:27;8.20;99.90
20459;DHT22;10388;52.314;7.938;2023-05-19T05:57:58;8.30;99.90
20459;DHT22;10388;52.314;7.938;2023-05-19T06:00:31;8.40;99.90
20459;DHT22;10388;52.314;7.938;2023-05-19T06:03:02;8.50;99.90
20459;DHT22;10388;52.314;7.938;2023-05-19T06:05:33;8.70;99.90
20459;DHT22;10388;52.314;7.938;2023-05-19T06:08:04;8.80;99.90
20459;DHT22;10388;52.314;7.938;2023-05-19T06:10:35;9.10;99.90
20459;DHT22;10388;52.314;7.938;2023-05-19T06:13:08;9.30;99.90
20459;DHT22;10388;52.314;7.938;2023-05-19T06:15:38;9.50;99.90
20459;DHT22;10388;52.314;7.938;2023-05-19T06:18:09;9.60;99.90
20459;DHT22;10388;52.314;7.938;2023-05-19T06:20:39;9.70;99.90
20459;DHT22;10388;52.314;7.938;2023-05-19T06:23:10;9.90;99.90
20459;DHT22;10388;52.314;7.938;2023-05-19T06:25:40;10.00;99.90
20459;DHT22;10388;52.314;7.938;2023-05-19T06:28:11;10.10;99.90
20459;DHT22;10388;52.314;7.938;2023-05-19T06:30:42;10.20;99.90
20459;DHT22;10388;52.314;7.938;2023-05-19T06:33:12;10.40;99.90
20459;DHT22;10388;52.314;7.938;2023-05-19T06:35:43;10.50;99.90
20459;DHT22;10388;52.314;7.938;2023-05-19T06:38:13;10.60;99.90
20459;DHT22;10388;52.314;7.938;2023-05-19T06:40:44;10.70;99.90
20459;DHT22;10388;52.314;7.938;2023-05-19T06:43:14;10.90;99.90
20459;DHT22;10388;52.314;7.938;2023-05-19T06:45:45;11.00;99.90
20459;DHT22;10388;52.314;7.938;2023-05-19T06:48:15;11.20;99.90
20459;DHT22;10388;52.314;7.938;2023-05-19T06:50:46;11.30;99.90
20459;DHT22;10388;52.314;7.938;2023-05-19T06:53:18;11.30;99.90
20459;DHT22;10388;52.314;7.938;2023-05-19T06:55:50;11.40;99.90
20459;DHT22;10388;52.314;7.938;2023-05-19T06:58:20;11.50;99.90
20459;DHT22;10388;52.314;7.938;2023-05-19T07:00:51;11.70;99.90
20459;DHT22;10388;52.314;7.938;2023-05-19T07:03:22;11.80;99.90
20459;DHT22;10388;52.314;7.938;2023-05-19T07:05:52;11.90;99.90
20459;DHT22;10388;52.314;7.938;2023-05-19T07:08:23;11.90;99.90
20459;DHT22;10388;52.314;7.938;2023-05-19T07:10:53;12.10;99.90
20459;DHT22;10388;52.314;7.938;2023-05-19T07:13:27;12.30;99.90
20459;DHT22;10388;52.314;7.938;2023-05-19T07:15:57;12.50;99.90
20459;DHT22;10388;52.314;7.938;2023-05-19T07:18:28;12.60;99.90
20459;DHT22;10388;52.314;7.938;2023-05-19T07:21:01;12.80;99.90
20459;DHT22;10388;52.314;7.938;2023-05-19T07:23:32;12.90;99.90
20459;DHT22;10388;52.314;7.938;2023-05-19T07:26:03;12.90;99.90
20459;DHT22;10388;52.314;7.938;2023-05-19T07:28:33;12.80;99.90
20459;DHT22;10388;52.314;7.938;2023-05-19T07:31:04;12.90;99.90
20459;DHT22;10388;52.314;7.938;2023-05-19T07:33:34;13.00;99.90
20459;DHT22;10388;52.314;7.938;2023-05-19T07:36:05;13.30;99.90
20459;DHT22;10388;52.314;7.938;2023-05-19T07:38:36;13.50;99.90
20459;DHT22;10388;52.314;7.938;2023-05-19T07:41:06;13.60;99.90
20459;DHT22;10388;52.314;7.938;2023-05-19T07:43:37;13.70;99.90
20459;DHT22;10388;52.314;7.938;2023-05-19T07:46:07;13.90;99.90
20459;DHT22;10388;52.314;7.938;2023-05-19T07:48:38;13.90;99.90
20459;DHT22;10388;52.314;7.938;2023-05-19T07:51:08;14.10;99.90
20459;DHT22;10388;52.314;7.938;2023-05-19T07:53:39;14.20;99.90
20459;DHT22;10388;52.314;7.938;2023-05-19T07:56:10;14.30;99.90
20459;DHT22;10388;52.314;7.938;2023-05-19T07:58:40;14.50;99.90
20459;DHT22;10388;52.314;7.938;2023-05-19T08:01:11;14.50;99.90
20459;DHT22;10388;52.314;7.938;2023-05-19T08:03:41;14.50;99.90
20459;DHT22;10388;52.314;7.938;2023-05-19T08:06:12;14.80;99.90
20459;DHT22;10388;52.314;7.938;2023-05-19T08:08:42;14.90;99.90
20459;DHT22;10388;52.314;7.938;2023-05-19T08:11:13;15.00;99.90
20459;DHT22;10388;52.314;7.938;2023-05-19T08:13:44;15.10;99.90
20459;DHT22;10388;52.314;7.938;2023-05-19T08:16:16;15.20;99.90
20459;DHT22;10388;52.314;7.938;2023-05-19T08:18:47;15.30;99.90
20459;DHT22;10388;52.314;7.938;2023-05-19T08:21:18;15.10;99.90
20459;DHT22;10388;52.314;7.938;2023-05-19T08:23:48;15.20;99.90
20459;DHT22;10388;52.314;7.938;2023-05-19T08:26:19;15.30;99.90
20459;DHT22;10388;52.314;7.938;2023-05-19T08:28:50;15.50;99.90
20459;DHT22;10388;52.314;7.938;2023-05-19T08:31:21;15.70;99.90
20459;DHT22;10388;52.314;7.938;2023-05-19T08:33:52;16.00;99.90
20459;DHT22;10388;52.314;7.938;2023-05-19T08:36:22;16.10;99.90
20459;DHT22;10388;52.314;7.938;2023-05-19T08:38:54;16.10;99.90
20459;DHT22;10388;52.314;7.938;2023-05-19T08:41:24;16.00;99.90
20459;DHT22;10388;52.314;7.938;2023-05-19T08:43:55;16.00;99.90
20459;DHT22;10388;52.314;7.938;2023-05-19T08:46:28;16.10;99.90
20459;DHT22;10388;52.314;7.938;2023-05-19T08:49:03;16.20;99.90
20459;DHT22;10388;52.314;7.938;2023-05-19T08:51:59;16.40;99.90
20459;DHT22;10388;52.314;7.938;2023-05-19T08:54:36;16.40;99.90
20459;DHT22;10388;52.314;7.938;2023-05-19T08:57:11;16.80;99.90
20459;DHT22;10388;52.314;7.938;2023-05-19T08:59:42;16.60;99.90
20459;DHT22;10388;52.314;7.938;2023-05-19T09:02:14;16.30;99.90
20459;DHT22;10388;52.314;7.938;2023-05-19T09:04:46;16.40;99.90
20459;DHT22;10388;52.314;7.938;2023-05-19T09:07:17;16.60;99.90
20459;DHT22;10388;52.314;7.938;2023-05-19T09:09:50;17.00;99.90
20459;DHT22;10388;52.314;7.938;2023-05-19T09:12:21;17.10;99.90
20459;DHT22;10388;52.314;7.938;2023-05-19T09:14:52;17.30;99.90
20459;DHT22;10388;52.314;7.938;2023-05-19T09:17:22;17.40;99.90
20459;DHT22;10388;52.314;7.938;2023-05-19T09:19:53;17.60;99.90
20459;DHT22;10388;52.314;7.938;2023-05-19T09:22:23;17.40;99.90
20459;DHT22;10388;52.314;7.938;2023-05-19T09:24:55;17.80;99.90
20459;DHT22;10388;52.314;7.938;2023-05-19T09:27:26;17.70;99.90
20459;DHT22;10388;52.314;7.938;2023-05-19T09:30:06;17.30;99.90
20459;DHT22;10388;52.314;7.938;2023-05-19T09:32:37;17.50;99.90
20459;DHT22;10388;52.314;7.938;2023-05-19T09:35:09;17.70;99.90
20459;DHT22;10388;52.314;7.938;2023-05-19T09:37:40;17.60;99.90
20459;DHT22;10388;52.314;7.938;2023-05-19T09:40:14;17.70;99.90
20459;DHT22;10388;52.314;7.938;2023-05-19T09:42:45;17.70;99.90
20459;DHT22;10388;52.314;7.938;2023-05-19T09:45:18;17.70;99.90
20459;DHT22;10388;52.314;7.938;2023-05-19T09:47:49;17.80;99.90
20459;DHT22;10388;52.314;7.938;2023-05-19T09:50:21;18.00;99.90
20459;DHT22;10388;52.314;7.938;2023-05-19T09:52:51;18.00;99.90
20459;DHT22;10388;52.314;7.938;2023-05-19T09:55:24;18.00;99.90
20459;DHT22;10388;52.314;7.938;2023-05-19T09:57:55;17.70;99.90
20459;DHT22;10388;52.314;7.938;2023-05-19T10:00:26;18.10;99.90
20459;DHT22;10388;52.314;7.938;2023-05-19T10:02:57;18.20;99.90
20459;DHT22;10388;52.314;7.938;2023-05-19T10:05:30;18.40;99.90
20459;DHT22;10388;52.314;7.938;2023-05-19T10:08:02;18.20;99.90
20459;DHT22;10388;52.314;7.938;2023-05-19T10:10:36;18.20;99.90
20459;DHT22;10388;52.314;7.938;2023-05-19T10:13:07;18.40;99.90
20459;DHT22;10388;52.314;7.938;2023-05-19T10:15:40;18.30;99.90
20459;DHT22;10388;52.314;7.938;2023-05-19T10:18:12;18.50;99.90
20459;DHT22;10388;52.314;7.938;2023-05-19T10:20:45;18.70;99.90
20459;DHT22;10388;52.314;7.938;2023-05-19T10:23:15;18.90;99.90
20459;DHT22;10388;52.314;7.938;2023-05-19T10:25:46;18.40;99.90
20459;DHT22;10388;52.314;7.938;2023-05-19T10:28:19;18.00;99.90
20459;DHT22;10388;52.314;7.938;2023-05-19T10:30:55;18.50;99.90
20459;DHT22;10388;52.314;7.938;2023-05-19T10:34:04;19.10;99.90
20459;DHT22;10388;52.314;7.938;2023-05-19T10:36:45;19.20;99.90
20459;DHT22;10388;52.314;7.938;2023-05-19T10:39:24;18.80;99.90
20459;DHT22;10388;52.314;7.938;2023-05-19T10:42:23;18.30;99.90
20459;DHT22;10388;52.314;7.938;2023-05-19T10:45:10;18.40;99.90
20459;DHT22;10388;52.314;7.938;2023-05-19T10:47:43;18.50;99.90
20459;DHT22;10388;52.314;7.938;2023-05-19T10:50:14;19.00;99.90
20459;DHT22;10388;52.314;7.938;2023-05-19T10:52:51;19.60;99.90
20459;DHT22;10388;52.314;7.938;2023-05-19T10:55:48;19.40;99.90
20459;DHT22;10388;52.314;7.938;2023-05-19T10:58:58;19.70;99.90
20459;DHT22;10388;52.314;7.938;2023-05-19T11:01:33;20.60;99.90
20459;DHT22;10388;52.314;7.938;2023-05-19T11:04:08;20.70;99.90
20459;DHT22;10388;52.314;7.938;2023-05-19T11:06:50;20.70;99.90
20459;DHT22;10388;52.314;7.938;2023-05-19T11:09:22;20.00;99.90
20459;DHT22;10388;52.314;7.938;2023-05-19T11:11:55;19.00;99.90
20459;DHT22;10388;52.314;7.938;2023-05-19T11:14:26;19.10;99.90
20459;DHT22;10388;52.314;7.938;2023-05-19T11:16:58;19.80;99.90
20459;DHT22;10388;52.314;7.938;2023-05-19T11:19:34;19.10;99.90
20459;DHT22;10388;52.314;7.938;2023-05-19T11:22:12;19.10;99.90
20459;DHT22;10388;52.314;7.938;2023-05-19T11:24:46;18.80;99.90
20459;DHT22;10388;52.314;7.938;2023-05-19T11:27:25;18.80;99.90
20459;DHT22;10388;52.314;7.938;2023-05-19T11:32:35;20.30;99.90
20459;DHT22;10388;52.314;7.938;2023-05-19T11:35:09;20.40;99.90
20459;DHT22;10388;52.314;7.938;2023-05-19T11:37:41;20.10;99.90
20459;DHT22;10388;52.314;7.938;2023-05-19T11:40:12;20.30;99.90
20459;DHT22;10388;52.314;7.938;2023-05-19T11:42:44;20.40;99.90
20459;DHT22;10388;52.314;7.938;2023-05-19T11:45:15;19.80;99.90
20459;DHT22;10388;52.314;7.938;2023-05-19T11:47:46;19.20;99.90
20459;DHT22;10388;52.314;7.938;2023-05-19T11:50:16;19.60;99.90
20459;DHT22;10388;52.314;7.938;2023-05-19T11:52:47;19.20;99.90
20459;DHT22;10388;52.314;7.938;2023-05-19T11:55:20;19.30;99.90
20459;DHT22;10388;52.314;7.938;2023-05-19T12:00:29;19.40;99.90
20459;DHT22;10388;52.314;7.938;2023-05-19T12:02:59;20.00;99.90
20459;DHT22;10388;52.314;7.938;2023-05-19T12:05:30;19.40;99.90
20459;DHT22;10388;52.314;7.938;2023-05-19T12:08:01;19.00;99.90
20459;DHT22;10388;52.314;7.938;2023-05-19T12:10:32;18.60;99.90
20459;DHT22;10388;52.314;7.938;2023-05-19T12:13:06;18.80;99.90
20459;DHT22;10388;52.314;7.938;2023-05-19T12:15:40;19.40;99.90
20459;DHT22;10388;52.314;7.938;2023-05-19T12:18:10;20.20;99.90
20459;DHT22;10388;52.314;7.938;2023-05-19T12:20:41;20.40;99.90
20459;DHT22;10388;52.314;7.938;2023-05-19T12:23:12;20.40;99.90
20459;DHT22;10388;52.314;7.938;2023-05-19T12:25:43;19.90;99.90
20459;DHT22;10388;52.314;7.938;2023-05-19T12:28:15;19.50;99.90
20459;DHT22;10388;52.314;7.938;2023-05-19T12:30:48;19.20;99.90
20459;DHT22;10388;52.314;7.938;2023-05-19T12:33:21;19.10;99.90
20459;DHT22;10388;52.314;7.938;2023-05-19T12:35:53;19.10;99.90
20459;DHT22;10388;52.314;7.938;2023-05-19T12:38:24;19.20;99.90
20459;DHT22;10388;52.314;7.938;2023-05-19T12:40:57;19.50;99.90
20459;DHT22;10388;52.314;7.938;2023-05-19T12:43:28;19.40;99.90
20459;DHT22;10388;52.314;7.938;2023-05-19T12:46:11;19.00;99.90
20459;DHT22;10388;52.314;7.938;2023-05-19T12:48:42;18.60;99.90
20459;DHT22;10388;52.314;7.938;2023-05-19T12:51:17;18.50;99.90
20459;DHT22;10388;52.314;7.938;2023-05-19T12:53:49;19.20;99.90
20459;DHT22;10388;52.314;7.938;2023-05-19T12:56:19;19.40;99.90
20459;DHT22;10388;52.314;7.938;2023-05-19T12:58:53;19.50;99.90
20459;DHT22;10388;52.314;7.938;2023-05-19T13:01:24;19.60;99.90
20459;DHT22;10388;52.314;7.938;2023-05-19T13:03:54;19.20;99.90
20459;DHT22;10388;52.314;7.938;2023-05-19T13:06:25;19.20;99.90
20459;DHT22;10388;52.314;7.938;2023-05-19T13:08:56;19.60;99.90
20459;DHT22;10388;52.314;7.938;2023-05-19T13:11:27;20.00;99.90
20459;DHT22;10388;52.314;7.938;2023-05-19T13:13:58;20.50;99.90
20459;DHT22;10388;52.314;7.938;2023-05-19T13:16:28;21.10;99.90
20459;DHT22;10388;52.314;7.938;2023-05-19T13:18:59;20.30;99.90
20459;DHT22;10388;52.314;7.938;2023-05-19T13:21:30;19.90;99.90
20459;DHT22;10388;52.314;7.938;2023-05-19T13:24:00;19.20;99.90
20459;DHT22;10388;52.314;7.938;2023-05-19T13:26:33;19.30;99.90
20459;DHT22;10388;52.314;7.938;2023-05-19T13:29:04;19.20;99.90
20459;DHT22;10388;52.314;7.938;2023-05-19T13:31:34;19.80;99.90
20459;DHT22;10388;52.314;7.938;2023-05-19T13:34:05;20.10;99.90
20459;DHT22;10388;52.314;7.938;2023-05-19T13:36:36;20.30;99.90
20459;DHT22;10388;52.314;7.938;2023-05-19T13:39:06;20.80;99.90
20459;DHT22;10388;52.314;7.938;2023-05-19T13:41:37;20.20;99.90
20459;DHT22;10388;52.314;7.938;2023-05-19T13:44:07;19.20;99.90
20459;DHT22;10388;52.314;7.938;2023-05-19T13:46:38;19.10;99.90
20459;DHT22;10388;52.314;7.938;2023-05-19T13:49:08;19.10;99.90
20459;DHT22;10388;52.314;7.938;2023-05-19T13:51:41;19.10;99.90
20459;DHT22;10388;52.314;7.938;2023-05-19T13:54:12;18.90;99.90
20459;DHT22;10388;52.314;7.938;2023-05-19T13:56:43;19.10;99.90
20459;DHT22;10388;52.314;7.938;2023-05-19T13:59:16;19.40;99.90
20459;DHT22;10388;52.314;7.938;2023-05-19T14:01:47;19.70;99.90
20459;DHT22;10388;52.314;7.938;2023-05-19T14:04:17;20.60;99.90
20459;DHT22;10388;52.314;7.938;2023-05-19T14:06:48;21.00;99.90
20459;DHT22;10388;52.314;7.938;2023-05-19T14:09:19;21.10;99.90
20459;DHT22;10388;52.314;7.938;2023-05-19T14:11:50;20.40;99.90
20459;DHT22;10388;52.314;7.938;2023-05-19T14:14:20;20.30;99.90
20459;DHT22;10388;52.314;7.938;2023-05-19T14:16:51;19.70;99.90
20459;DHT22;10388;52.314;7.938;2023-05-19T14:19:21;19.30;99.90
20459;DHT22;10388;52.314;7.938;2023-05-19T14:21:53;19.60;99.90
20459;DHT22;10388;52.314;7.938;2023-05-19T14:24:23;19.90;99.90
20459;DHT22;10388;52.314;7.938;2023-05-19T14:26:54;20.20;99.90
20459;DHT22;10388;52.314;7.938;2023-05-19T14:29:26;20.00;99.90
20459;DHT22;10388;52.314;7.938;2023-05-19T14:31:57;20.30;99.90
20459;DHT22;10388;52.314;7.938;2023-05-19T14:34:27;20.20;99.90
20459;DHT22;10388;52.314;7.938;2023-05-19T14:36:58;19.90;99.90
20459;DHT22;10388;52.314;7.938;2023-05-19T14:39:29;19.70;99.90
20459;DHT22;10388;52.314;7.938;2023-05-19T14:42:00;19.10;99.90
20459;DHT22;10388;52.314;7.938;2023-05-19T14:44:31;18.90;99.90
20459;DHT22;10388;52.314;7.938;2023-05-19T14:47:02;19.30;99.90
20459;DHT22;10388;52.314;7.938;2023-05-19T14:49:33;19.80;99.90
20459;DHT22;10388;52.314;7.938;2023-05-19T14:52:04;19.90;99.90
20459;DHT22;10388;52.314;7.938;2023-05-19T14:54:34;20.20;99.90
20459;DHT22;10388;52.314;7.938;2023-05-19T14:57:05;20.40;99.90
20459;DHT22;10388;52.314;7.938;2023-05-19T14:59:37;20.30;99.90
20459;DHT22;10388;52.314;7.938;2023-05-19T15:02:08;19.90;99.90
20459;DHT22;10388;52.314;7.938;2023-05-19T15:04:40;19.40;99.90
20459;DHT22;10388;52.314;7.938;2023-05-19T15:07:11;19.10;99.90
20459;DHT22;10388;52.314;7.938;2023-05-19T15:09:41;19.10;99.90
20459;DHT22;10388;52.314;7.938;2023-05-19T15:12:12;19.70;99.90
20459;DHT22;10388;52.314;7.938;2023-05-19T15:14:42;19.50;99.90
20459;DHT22;10388;52.314;7.938;2023-05-19T15:17:13;19.20;99.90
20459;DHT22;10388;52.314;7.938;2023-05-19T15:19:44;19.00;99.90
20459;DHT22;10388;52.314;7.938;2023-05-19T15:22:14;18.90;99.90
20459;DHT22;10388;52.314;7.938;2023-05-19T15:24:45;19.10;99.90
20459;DHT22;10388;52.314;7.938;2023-05-19T15:27:15;19.50;99.90
20459;DHT22;10388;52.314;7.938;2023-05-19T15:29:46;19.80;99.90
20459;DHT22;10388;52.314;7.938;2023-05-19T15:32:16;20.00;99.90
20459;DHT22;10388;52.314;7.938;2023-05-19T15:34:47;19.90;99.90
20459;DHT22;10388;52.314;7.938;2023-05-19T15:37:18;19.90;99.90
20459;DHT22;10388;52.314;7.938;2023-05-19T15:39:48;19.70;99.90
20459;DHT22;10388;52.314;7.938;2023-05-19T15:42:19;19.20;99.90
20459;DHT22;10388;52.314;7.938;2023-05-19T15:44:49;18.90;99.90
20459;DHT22;10388;52.314;7.938;2023-05-19T15:47:20;18.90;99.90
20459;DHT22;10388;52.314;7.938;2023-05-19T15:49:50;18.70;99.90
20459;DHT22;10388;52.314;7.938;2023-05-19T15:52:21;18.80;99.90
20459;DHT22;10388;52.314;7.938;2023-05-19T15:54:51;18.90;99.90
20459;DHT22;10388;52.314;7.938;2023-05-19T15:57:24;19.30;99.90
20459;DHT22;10388;52.314;7.938;2023-05-19T15:59:54;19.40;99.90
20459;DHT22;10388;52.314;7.938;2023-05-19T16:02:25;19.30;99.90
20459;DHT22;10388;52.314;7.938;2023-05-19T16:04:56;19.20;99.90
20459;DHT22;10388;52.314;7.938;2023-05-19T16:07:26;19.20;99.90
20459;DHT22;10388;52.314;7.938;2023-05-19T16:09:57;19.10;99.90
20459;DHT22;10388;52.314;7.938;2023-05-19T16:12:27;19.10;99.90
20459;DHT22;10388;52.314;7.938;2023-05-19T16:14:58;19.40;99.90
20459;DHT22;10388;52.314;7.938;2023-05-19T16:17:29;19.20;99.90
20459;DHT22;10388;52.314;7.938;2023-05-19T16:19:59;19.00;99.90
20459;DHT22;10388;52.314;7.938;2023-05-19T16:22:30;18.90;99.90
20459;DHT22;10388;52.314;7.938;2023-05-19T16:25:00;18.50;99.90
20459;DHT22;10388;52.314;7.938;2023-05-19T16:27:31;18.40;99.90
20459;DHT22;10388;52.314;7.938;2023-05-19T16:30:01;18.10;99.90
20459;DHT22;10388;52.314;7.938;2023-05-19T16:32:32;18.10;99.90
20459;DHT22;10388;52.314;7.938;2023-05-19T16:35:03;18.10;99.90
20459;DHT22;10388;52.314;7.938;2023-05-19T16:37:34;18.30;99.90
20459;DHT22;10388;52.314;7.938;2023-05-19T16:40:05;18.20;99.90
20459;DHT22;10388;52.314;7.938;2023-05-19T16:42:36;18.20;99.90
20459;DHT22;10388;52.314;7.938;2023-05-19T16:45:07;18.40;99.90
20459;DHT22;10388;52.314;7.938;2023-05-19T16:47:37;18.50;99.90
20459;DHT22;10388;52.314;7.938;2023-05-19T16:50:08;18.50;99.90
20459;DHT22;10388;52.314;7.938;2023-05-19T16:52:39;18.50;99.90
20459;DHT22;10388;52.314;7.938;2023-05-19T16:55:09;18.50;99.90
20459;DHT22;10388;52.314;7.938;2023-05-19T16:57:40;18.50;99.90
20459;DHT22;10388;52.314;7.938;2023-05-19T17:00:11;18.10;99.90
20459;DHT22;10388;52.314;7.938;2023-05-19T17:02:42;18.00;99.90
20459;DHT22;10388;52.314;7.938;2023-05-19T17:05:12;18.10;99.90
20459;DHT22;10388;52.314;7.938;2023-05-19T17:07:43;18.00;99.90
20459;DHT22;10388;52.314;7.938;2023-05-19T17:10:14;18.10;99.90
20459;DHT22;10388;52.314;7.938;2023-05-19T17:12:44;18.10;99.90
20459;DHT22;10388;52.314;7.938;2023-05-19T17:15:15;18.00;99.90
20459;DHT22;10388;52.314;7.938;2023-05-19T17:17:46;17.90;99.90
20459;DHT22;10388;52.314;7.938;2023-05-19T17:20:16;17.90;99.90
20459;DHT22;10388;52.314;7.938;2023-05-19T17:22:47;17.90;99.90
20459;DHT22;10388;52.314;7.938;2023-05-19T17:25:17;17.90;99.90
20459;DHT22;10388;52.314;7.938;2023-05-19T17:27:48;17.90;99.90
20459;DHT22;10388;52.314;7.938;2023-05-19T17:30:18;17.80;99.90
20459;DHT22;10388;52.314;7.938;2023-05-19T17:32:49;17.80;99.90
20459;DHT22;10388;52.314;7.938;2023-05-19T17:35:20;17.80;99.90
20459;DHT22;10388;52.314;7.938;2023-05-19T17:37:50;17.70;99.90
20459;DHT22;10388;52.314;7.938;2023-05-19T17:40:21;17.70;99.90
20459;DHT22;10388;52.314;7.938;2023-05-19T17:42:52;17.60;99.90
20459;DHT22;10388;52.314;7.938;2023-05-19T17:45:22;17.50;99.90
20459;DHT22;10388;52.314;7.938;2023-05-19T17:47:53;17.50;99.90
20459;DHT22;10388;52.314;7.938;2023-05-19T17:50:24;17.40;99.90
20459;DHT22;10388;52.314;7.938;2023-05-19T17:52:54;17.30;99.90
20459;DHT22;10388;52.314;7.938;2023-05-19T17:55:26;17.30;99.90
20459;DHT22;10388;52.314;7.938;2023-05-19T17:57:59;17.20;99.90
20459;DHT22;10388;52.314;7.938;2023-05-19T18:00:30;17.20;99.90
20459;DHT22;10388;52.314;7.938;2023-05-19T18:03:01;17.20;99.90
20459;DHT22;10388;52.314;7.938;2023-05-19T18:05:34;17.10;99.90
20459;DHT22;10388;52.314;7.938;2023-05-19T18:08:08;17.10;99.90
20459;DHT22;10388;52.314;7.938;2023-05-19T18:10:41;17.00;99.90
20459;DHT22;10388;52.314;7.938;2023-05-19T18:13:15;17.00;99.90
20459;DHT22;10388;52.314;7.938;2023-05-19T18:15:46;17.00;99.90
20459;DHT22;10388;52.314;7.938;2023-05-19T18:18:16;16.90;99.90
20459;DHT22;10388;52.314;7.938;2023-05-19T18:20:47;16.80;99.90
20459;DHT22;10388;52.314;7.938;2023-05-19T18:23:17;16.80;99.90
20459;DHT22;10388;52.314;7.938;2023-05-19T18:25:48;16.80;99.90
20459;DHT22;10388;52.314;7.938;2023-05-19T18:28:20;16.80;99.90
20459;DHT22;10388;52.314;7.938;2023-05-19T18:31:01;16.80;99.90
20459;DHT22;10388;52.314;7.938;2023-05-19T18:33:32;16.70;99.90
20459;DHT22;10388;52.314;7.938;2023-05-19T18:36:03;16.60;99.90
20459;DHT22;10388;52.314;7.938;2023-05-19T18:38:34;16.60;99.90
20459;DHT22;10388;52.314;7.938;2023-05-19T18:41:07;16.50;99.90
20459;DHT22;10388;52.314;7.938;2023-05-19T18:43:38;16.50;99.90
20459;DHT22;10388;52.314;7.938;2023-05-19T18:46:09;16.50;99.90
20459;DHT22;10388;52.314;7.938;2023-05-19T18:48:40;16.30;99.90
20459;DHT22;10388;52.314;7.938;2023-05-19T18:51:10;16.30;99.90
20459;DHT22;10388;52.314;7.938;2023-05-19T18:53:44;16.20;99.90
20459;DHT22;10388;52.314;7.938;2023-05-19T18:56:22;16.10;99.90
20459;DHT22;10388;52.314;7.938;2023-05-19T18:58:53;16.10;99.90
20459;DHT22;10388;52.314;7.938;2023-05-19T19:01:24;16.00;99.90
20459;DHT22;10388;52.314;7.938;2023-05-19T19:03:54;16.00;99.90
20459;DHT22;10388;52.314;7.938;2023-05-19T19:06:25;15.80;99.90
20459;DHT22;10388;52.314;7.938;2023-05-19T19:08:56;15.80;99.90
20459;DHT22;10388;52.314;7.938;2023-05-19T19:11:26;15.70;99.90
20459;DHT22;10388;52.314;7.938;2023-05-19T19:13:57;15.70;99.90
20459;DHT22;10388;52.314;7.938;2023-05-19T19:16:27;15.60;99.90
20459;DHT22;10388;52.314;7.938;2023-05-19T19:18:58;15.50;99.90
20459;DHT22;10388;52.314;7.938;2023-05-19T19:21:28;15.50;99.90
20459;DHT22;10388;52.314;7.938;2023-05-19T19:24:00;15.40;99.90
20459;DHT22;10388;52.314;7.938;2023-05-19T19:26:31;15.40;99.90
20459;DHT22;10388;52.314;7.938;2023-05-19T19:29:01;15.30;99.90
20459;DHT22;10388;52.314;7.938;2023-05-19T19:31:32;15.20;99.90
20459;DHT22;10388;52.314;7.938;2023-05-19T19:34:03;15.10;99.90
20459;DHT22;10388;52.314;7.938;2023-05-19T19:36:38;15.10;99.90